Time;durP1;ratioP1;P1;durP2;ratioP2;P2;SDS_P1;SDS_P2;PMS_P1;PMS_P2;Temp;Humidity;BMP_temperature;BMP_pressure;BME280_temperature;BME280_humidity;BME280_pressure;Samples;Min_cycle;Max_cycle;Signal;HPM_P1;HPM_P2
2021/08/31 00:00:18;;;;;;;10.43;7.97;;;;;;;24.06;45.82;99699.38;2081218;28;20021;-47
2021/08/31 00:01:18;;;;;;;10.70;7.20;;;;;;;24.07;45.81;99703.84;2086049;28;20028;-45
2021/08/31 00:02:20;;;;;;;9.07;6.80;;;;;;;24.06;45.69;99707.66;2082542;28;20032;-46
2021/08/31 00:03:20;;;;;;;11.43;6.50;;;;;;;24.06;45.64;99710.41;2082590;28;20039;-46
2021/08/31 00:04:21;;;;;;;9.30;6.90;;;;;;;24.07;45.85;99712.09;2080798;28;20052;-45
2021/08/31 00:05:21;;;;;;;9.70;7.30;;;;;;;24.05;45.82;99709.53;2079055;28;20055;-46
2021/08/31 00:06:22;;;;;;;9.20;6.83;;;;;;;24.05;45.77;99709.53;2085886;28;20091;-45
2021/08/31 00:07:22;;;;;;;9.93;7.53;;;;;;;24.06;45.87;99724.16;2083176;28;20429;-45
2021/08/31 00:08:23;;;;;;;9.70;6.73;;;;;;;24.06;45.99;99718.66;2085571;28;20033;-46
2021/08/31 00:09:24;;;;;;;10.20;7.33;;;;;;;24.06;45.84;99721.41;2079367;28;20023;-48
2021/08/31 00:10:25;;;;;;;9.27;6.90;;;;;;;24.05;45.82;99720.53;2079313;28;20033;-45
2021/08/31 00:11:25;;;;;;;9.23;6.70;;;;;;;24.06;45.92;99721.41;2081150;28;20031;-54
2021/08/31 00:12:26;;;;;;;9.33;7.07;;;;;;;24.06;45.76;99718.66;2085110;28;20454;-47
2021/08/31 00:13:26;;;;;;;10.63;7.10;;;;;;;24.06;45.89;99732.44;2080567;28;20287;-46
2021/08/31 00:14:27;;;;;;;9.53;7.47;;;;;;;24.05;46.02;99730.69;2080196;28;20102;-45
2021/08/31 00:15:28;;;;;;;8.63;6.67;;;;;;;24.05;46.09;99725.19;2081926;28;20082;-46
2021/08/31 00:16:28;;;;;;;7.83;6.33;;;;;;;24.04;45.89;99718.84;2082192;28;20024;-46
2021/08/31 00:17:29;;;;;;;8.57;6.90;;;;;;;24.05;45.81;99725.19;2085069;28;20056;-46
2021/08/31 00:18:29;;;;;;;9.40;7.30;;;;;;;24.04;45.93;99720.75;2084492;28;20033;-46
2021/08/31 00:19:30;;;;;;;8.20;6.70;;;;;;;24.04;45.83;99718.84;2084030;28;20028;-46
2021/08/31 00:20:30;;;;;;;9.80;7.30;;;;;;;24.04;45.87;99724.34;2083559;28;20415;-45
2021/08/31 00:21:31;;;;;;;7.90;5.57;;;;;;;24.04;45.89;99718.00;2085076;28;20080;-46
2021/08/31 00:22:32;;;;;;;10.03;7.07;;;;;;;24.05;45.88;99719.69;2083035;28;20032;-46
2021/08/31 00:23:33;;;;;;;11.13;6.65;;;;;;;24.04;45.82;99718.84;2082665;28;20036;-47
2021/08/31 00:24:34;;;;;;;8.53;6.87;;;;;;;24.04;45.90;99716.09;2081300;28;20041;-46
2021/08/31 00:25:35;;;;;;;9.68;6.90;;;;;;;24.04;45.83;99718.84;2081398;28;20402;-47
2021/08/31 00:26:35;;;;;;;6.70;6.00;;;;;;;24.04;46.00;99713.34;2083925;28;20032;-46
2021/08/31 00:27:36;;;;;;;10.40;6.43;;;;;;;24.04;45.97;99712.50;2078218;28;20030;-45
2021/08/31 00:28:37;;;;;;;9.85;6.63;;;;;;;24.04;45.83;99706.97;2083961;28;20043;-46
2021/08/31 00:29:38;;;;;;;8.17;6.73;;;;;;;24.04;45.92;99713.34;2081682;28;20059;-47
2021/08/31 00:30:38;;;;;;;7.83;6.40;;;;;;;24.04;45.92;99705.06;2085454;28;20025;-46
2021/08/31 00:31:39;;;;;;;6.80;5.60;;;;;;;24.04;45.83;99713.34;2085610;28;20327;-46
2021/08/31 00:32:39;;;;;;;7.83;6.73;;;;;;;24.04;45.93;99706.97;2083818;28;20292;-46
2021/08/31 00:33:40;;;;;;;9.27;6.70;;;;;;;24.04;45.89;99701.47;2085199;28;20044;-45
2021/08/31 00:34:40;;;;;;;8.43;6.27;;;;;;;24.03;45.94;99706.09;2083159;28;20020;-46
2021/08/31 00:35:41;;;;;;;8.20;6.40;;;;;;;24.03;46.05;99705.25;2083115;28;20515;-46
2021/08/31 00:36:42;;;;;;;8.93;6.67;;;;;;;24.02;46.04;99701.66;2080985;28;20418;-46
2021/08/31 00:37:43;;;;;;;9.63;6.75;;;;;;;24.03;46.01;99700.59;2084820;28;20078;-45
2021/08/31 00:38:43;;;;;;;7.93;6.40;;;;;;;24.03;45.92;99699.75;2084082;28;20117;-46
2021/08/31 00:39:43;;;;;;;9.00;7.30;;;;;;;24.03;46.06;99705.25;2084921;28;20032;-46
2021/08/31 00:40:46;;;;;;;7.73;6.70;;;;;;;24.03;46.03;99708.00;2083009;28;20430;-46
2021/08/31 00:41:48;;;;;;;8.10;5.93;;;;;;;24.02;46.12;99707.16;2078714;28;20029;-46
2021/08/31 00:42:48;;;;;;;7.45;6.50;;;;;;;24.02;45.97;99704.41;2084378;28;20032;-46
2021/08/31 00:43:50;;;;;;;8.57;6.20;;;;;;;24.03;46.05;99710.75;2073080;28;20448;-46
2021/08/31 00:44:50;;;;;;;;;;;;;;;23.99;46.04;99712.22;2080162;28;20364;-47
2021/08/31 00:45:50;;;;;;;7.97;6.68;;;;;;;24.00;45.97;99711.16;2082779;28;19925;-46
2021/08/31 00:46:56;;;;;;;9.00;5.70;;;;;;;24.00;46.18;99711.16;2079964;28;20049;-46
2021/08/31 00:47:58;;;;;;;7.57;6.15;;;;;;;24.01;46.13;99719.22;2084321;28;20068;-47
2021/08/31 00:48:58;;;;;;;8.13;6.03;;;;;;;24.01;46.14;99712.84;2082039;28;20024;-47
2021/08/31 00:49:59;;;;;;;7.97;6.10;;;;;;;24.01;46.04;99713.72;2083619;28;20433;-46
2021/08/31 00:50:59;;;;;;;8.20;5.97;;;;;;;24.01;46.10;99718.34;2084063;28;20309;-46
2021/08/31 00:52:01;;;;;;;7.17;6.17;;;;;;;24.02;46.17;99711.81;2082443;28;20150;-46
2021/08/31 00:53:02;;;;;;;7.65;6.60;;;;;;;24.01;46.04;99708.22;2083466;28;20406;-46
2021/08/31 00:54:03;;;;;;;9.15;6.30;;;;;;;24.01;46.04;99712.84;2084969;28;20299;-45
2021/08/31 00:55:04;;;;;;;7.80;6.22;;;;;;;24.02;46.11;99709.91;2081954;28;20311;-46
2021/08/31 00:56:10;;;;;;;8.40;6.03;;;;;;;24.00;46.15;99709.25;2078548;28;20041;-45
2021/08/31 00:57:13;;;;;;;8.82;7.45;;;;;;;24.02;46.05;99706.31;2081191;28;20032;-46
2021/08/31 00:58:13;;;;;;;8.23;6.22;;;;;;;24.01;46.06;99710.97;2085183;28;20083;-47
2021/08/31 00:59:19;;;;;;;8.37;6.13;;;;;;;24.01;46.10;99712.84;2078736;28;20024;-46
2021/08/31 01:00:19;;;;;;;9.10;6.40;;;;;;;24.01;46.20;99707.34;2083165;28;20312;-46
2021/08/31 01:01:20;;;;;;;8.47;6.20;;;;;;;24.01;46.25;99708.22;2081373;28;20086;-46
2021/08/31 01:02:20;;;;;;;7.93;5.80;;;;;;;24.00;46.21;99709.25;2083956;28;20036;-45
2021/08/31 01:03:22;;;;;;;7.50;6.10;;;;;;;24.00;46.28;99708.41;2082663;28;20067;-46
2021/08/31 01:04:25;;;;;;;9.68;5.97;;;;;;;24.00;46.10;99706.50;2079727;28;20032;-46
2021/08/31 01:05:44;;;;;;;6.97;5.40;;;;;;;23.98;46.29;99713.25;2082792;28;20522;-49
2021/08/31 01:06:46;;;;;;;7.28;5.85;;;;;;;24.00;46.16;99713.91;2083238;28;20234;-45
2021/08/31 01:07:47;;;;;;;9.00;6.55;;;;;;;24.00;46.33;99705.66;2081749;28;20028;-45
2021/08/31 01:08:47;;;;;;;7.70;5.53;;;;;;;24.00;46.36;99716.66;2081663;28;20036;-48
2021/08/31 01:09:49;;;;;;;9.07;6.23;;;;;;;23.99;46.29;99712.22;2085073;28;20059;-45
2021/08/31 01:10:51;;;;;;;7.70;6.53;;;;;;;23.99;46.31;99714.97;2084365;28;20332;-45
2021/08/31 01:11:54;;;;;;;7.53;5.88;;;;;;;23.99;46.30;99714.97;2081636;28;20116;-46
2021/08/31 01:12:55;;;;;;;7.35;5.88;;;;;;;23.99;46.41;99713.06;2083251;28;20482;-46
2021/08/31 01:13:55;;;;;;;8.05;6.65;;;;;;;23.99;46.27;99709.47;2084877;28;20134;-46
2021/08/31 01:14:57;;;;;;;8.20;5.17;;;;;;;23.99;46.25;99709.47;2082663;28;20411;-47
2021/08/31 01:15:57;;;;;;;6.63;5.40;;;;;;;23.99;46.24;99704.81;2083419;28;20342;-45
2021/08/31 01:16:57;;;;;;;7.33;5.90;;;;;;;23.99;46.27;99703.94;2079032;28;20037;-47
2021/08/31 01:18:14;;;;;;;8.40;5.70;;;;;;;23.96;46.36;99708.78;2083578;28;20020;-46
2021/08/31 01:19:17;;;;;;;7.95;6.03;;;;;;;23.98;46.33;99707.72;2076903;28;20027;-45
2021/08/31 01:20:19;;;;;;;10.57;5.80;;;;;;;23.99;46.28;99703.94;2080945;28;20024;-46
2021/08/31 01:21:19;;;;;;;;;;;;;;;23.93;46.32;99711.94;2083062;28;20020;-46
2021/08/31 01:22:20;;;;;;;7.28;5.68;;;;;;;23.95;46.34;99709.81;2083566;28;21185;-46
2021/08/31 01:23:21;;;;;;;8.23;5.47;;;;;;;23.95;46.30;99704.31;2077269;28;20028;-46
2021/08/31 01:24:21;;;;;;;8.50;5.95;;;;;;;23.98;46.31;99707.72;2083819;28;20045;-46
2021/08/31 01:25:22;;;;;;;9.13;5.83;;;;;;;23.97;46.20;99704.13;2082395;28;20024;-46
2021/08/31 01:26:22;;;;;;;6.53;5.37;;;;;;;23.97;46.23;99706.88;2084450;28;20162;-49
2021/08/31 01:27:25;;;;;;;7.70;5.90;;;;;;;23.98;46.16;99714.09;2081286;28;20028;-45
2021/08/31 01:28:28;;;;;;;8.15;6.13;;;;;;;23.98;46.28;99710.47;2080276;28;20025;-46
2021/08/31 01:29:30;;;;;;;7.38;5.57;;;;;;;23.97;46.35;99712.38;2081591;28;20162;-45
2021/08/31 01:30:32;;;;;;;8.73;5.30;;;;;;;23.98;46.23;99718.75;2081344;28;20028;-46
2021/08/31 01:31:32;;;;;;;8.23;5.50;;;;;;;23.99;46.23;99726.81;2080957;28;20347;-46
2021/08/31 01:32:33;;;;;;;6.87;5.30;;;;;;;23.98;46.23;99725.09;2083628;28;20054;-48
2021/08/31 01:33:34;;;;;;;9.83;5.83;;;;;;;23.98;46.28;99721.50;2082244;28;20032;-46
2021/08/31 01:34:34;;;;;;;7.75;5.80;;;;;;;23.98;46.21;99729.75;2080241;28;20089;-46
2021/08/31 01:35:35;;;;;;;6.20;5.27;;;;;;;23.98;46.21;99729.75;2077294;28;20028;-48
2021/08/31 01:36:36;;;;;;;6.63;4.40;;;;;;;23.98;46.35;99735.25;2083894;28;20519;-46
2021/08/31 01:37:36;;;;;;;6.00;5.05;;;;;;;23.96;46.40;99729.97;2084246;28;20449;-46
2021/08/31 01:38:37;;;;;;;6.80;5.33;;;;;;;23.98;46.32;99732.50;2083721;28;20033;-46
2021/08/31 01:39:38;;;;;;;7.83;5.47;;;;;;;23.96;46.33;99733.56;2081437;28;20062;-46
2021/08/31 01:40:39;;;;;;;8.18;6.20;;;;;;;23.96;46.52;99732.72;2084768;28;20032;-45
2021/08/31 01:41:40;;;;;;;7.13;5.40;;;;;;;23.96;46.41;99728.06;2081389;28;20047;-46
2021/08/31 01:42:40;;;;;;;6.33;5.13;;;;;;;23.96;46.37;99728.06;2080186;28;20125;-46
2021/08/31 01:43:41;;;;;;;7.93;5.03;;;;;;;23.95;46.45;99726.34;2082996;28;20122;-46
2021/08/31 01:44:41;;;;;;;6.23;5.33;;;;;;;23.95;46.39;99731.84;2084582;28;20024;-46
2021/08/31 01:45:45;;;;;;;9.03;5.93;;;;;;;23.95;46.33;99731.84;2082257;28;20040;-46
2021/08/31 01:46:46;;;;;;;6.85;5.05;;;;;;;23.95;46.29;99731.84;2082546;28;20029;-45
2021/08/31 01:47:47;;;;;;;6.70;5.20;;;;;;;23.95;46.34;99731.84;2082359;28;21256;-47
2021/08/31 01:48:47;;;;;;;8.00;5.53;;;;;;;23.95;46.30;99726.34;2081798;28;20028;-45
2021/08/31 01:49:48;;;;;;;9.80;5.60;;;;;;;23.94;46.40;99727.41;2079783;28;20017;-46
2021/08/31 01:50:49;;;;;;;7.43;5.03;;;;;;;23.95;46.53;99726.34;2085323;28;20029;-46
2021/08/31 01:51:49;;;;;;;6.90;5.17;;;;;;;23.95;46.36;99726.34;2083322;28;20304;-45
2021/08/31 01:52:50;;;;;;;5.60;4.43;;;;;;;23.95;46.38;99726.34;2083940;28;20032;-47
2021/08/31 01:53:51;;;;;;;6.80;4.80;;;;;;;23.96;46.44;99732.72;2083654;28;20119;-47
2021/08/31 01:54:51;;;;;;;7.33;5.30;;;;;;;23.95;46.44;99729.09;2082964;28;20017;-46
2021/08/31 01:55:51;;;;;;;8.70;4.97;;;;;;;23.96;46.32;99721.72;2080008;28;20747;-46
2021/08/31 01:56:52;;;;;;;7.17;5.20;;;;;;;23.95;46.41;99726.34;2085352;28;20385;-46
2021/08/31 01:57:52;;;;;;;7.73;5.87;;;;;;;23.94;46.27;99726.53;2082872;28;20313;-45
2021/08/31 01:58:53;;;;;;;6.93;5.47;;;;;;;23.94;46.34;99737.56;2082756;28;20644;-46
2021/08/31 01:59:53;;;;;;;7.20;4.87;;;;;;;23.93;46.43;99739.47;2084018;28;20474;-46
2021/08/31 02:00:54;;;;;;;6.53;5.50;;;;;;;23.95;46.40;99737.34;2082371;28;20056;-46
2021/08/31 02:01:54;;;;;;;6.60;4.97;;;;;;;23.93;46.27;99728.44;2083469;28;20459;-48
2021/08/31 02:02:55;;;;;;;6.73;5.07;;;;;;;23.93;46.24;99728.44;2083259;28;20073;-46
2021/08/31 02:03:55;;;;;;;8.33;5.63;;;;;;;23.93;46.19;99722.94;2080340;28;20655;-46
2021/08/31 02:04:55;;;;;;;8.40;5.27;;;;;;;23.93;46.43;99733.06;2082544;28;20048;-45
2021/08/31 02:05:56;;;;;;;7.60;5.40;;;;;;;23.92;46.26;99732.22;2084796;28;20028;-49
2021/08/31 02:06:56;;;;;;;6.67;4.80;;;;;;;23.92;46.28;99726.72;2079587;28;20032;-46
2021/08/31 02:07:57;;;;;;;7.03;4.73;;;;;;;23.92;46.27;99732.22;2084766;28;20143;-45
2021/08/31 02:08:57;;;;;;;6.43;5.53;;;;;;;23.92;46.28;99732.22;2079678;28;20029;-46
2021/08/31 02:09:58;;;;;;;6.13;4.97;;;;;;;23.93;46.23;99733.06;2082482;28;20028;-47
2021/08/31 02:10:58;;;;;;;6.70;5.10;;;;;;;23.92;46.21;99732.22;2079554;28;20032;-46
2021/08/31 02:11:59;;;;;;;6.70;5.00;;;;;;;23.93;46.27;99733.97;2083169;28;20370;-45
2021/08/31 02:12:59;;;;;;;6.23;5.20;;;;;;;23.91;46.21;99730.53;2080867;28;20029;-45
2021/08/31 02:13:59;;;;;;;5.17;4.07;;;;;;;23.91;46.32;99738.78;2080927;28;20048;-47
2021/08/31 02:15:00;;;;;;;5.63;4.57;;;;;;;23.92;46.44;99737.72;2083065;28;20028;-46
2021/08/31 02:16:01;;;;;;;6.00;4.87;;;;;;;23.93;46.26;99738.59;2081723;28;20071;-48
2021/08/31 02:17:01;;;;;;;6.50;4.90;;;;;;;23.92;46.33;99734.97;2081192;28;20064;-47
2021/08/31 02:18:02;;;;;;;6.13;4.90;;;;;;;23.92;46.29;99734.97;2084974;28;20031;-47
2021/08/31 02:19:02;;;;;;;7.85;5.28;;;;;;;23.92;46.35;99740.50;2077992;28;20024;-46
2021/08/31 02:20:04;;;;;;;6.90;5.10;;;;;;;23.92;46.36;99737.72;2083003;28;20024;-47
2021/08/31 02:21:06;;;;;;;7.55;5.35;;;;;;;23.92;46.33;99743.25;2084483;28;20089;-46
2021/08/31 02:22:06;;;;;;;6.45;5.25;;;;;;;23.91;46.41;99736.03;2082737;28;20037;-46
2021/08/31 02:23:07;;;;;;;6.13;5.03;;;;;;;23.92;46.41;99742.41;2081394;28;20311;-45
2021/08/31 02:24:09;;;;;;;5.57;4.97;;;;;;;23.93;46.33;99744.09;2084373;28;20064;-45
2021/08/31 02:25:10;;;;;;;5.75;4.45;;;;;;;23.94;46.35;99743.06;2082723;28;20342;-46
2021/08/31 02:26:11;;;;;;;5.65;4.28;;;;;;;23.91;46.27;99744.28;2083578;28;20186;-45
2021/08/31 02:27:12;;;;;;;6.20;5.10;;;;;;;23.91;46.34;99747.06;2075955;28;20549;-46
2021/08/31 02:28:12;;;;;;;6.63;5.00;;;;;;;23.91;46.37;99738.78;2077955;28;20111;-47
2021/08/31 02:29:12;;;;;;;5.57;4.87;;;;;;;23.90;46.32;99742.56;2084050;28;20575;-46
2021/08/31 02:30:13;;;;;;;5.03;3.97;;;;;;;23.91;46.25;99749.81;2083672;28;20828;-46
2021/08/31 02:31:14;;;;;;;9.45;5.63;;;;;;;23.91;46.17;99743.41;2084488;28;20021;-45
2021/08/31 02:32:14;;;;;;;6.87;4.50;;;;;;;23.90;46.32;99745.31;2084184;28;20029;-46
2021/08/31 02:33:15;;;;;;;6.10;4.77;;;;;;;23.91;46.28;99741.53;2084338;28;20021;-46
2021/08/31 02:34:16;;;;;;;7.47;5.47;;;;;;;23.90;46.26;99741.72;2081117;28;20020;-45
2021/08/31 02:35:17;;;;;;;6.07;4.77;;;;;;;23.92;46.21;99747.91;2078879;28;20367;-46
2021/08/31 02:36:18;;;;;;;5.93;4.75;;;;;;;23.90;46.28;99750.81;2078723;28;20029;-46
2021/08/31 02:37:18;;;;;;;6.97;4.33;;;;;;;23.91;46.29;99744.28;2081382;28;20037;-45
2021/08/31 02:38:19;;;;;;;6.47;4.90;;;;;;;23.90;46.34;99748.06;2080101;28;20439;-47
2021/08/31 02:39:19;;;;;;;5.67;4.23;;;;;;;23.89;46.33;99738.13;2081545;28;20052;-46
2021/08/31 02:40:20;;;;;;;6.07;4.50;;;;;;;23.90;46.35;99748.06;2081970;28;20024;-46
2021/08/31 02:41:20;;;;;;;5.03;4.23;;;;;;;23.90;46.26;99745.31;2082411;28;20036;-48
2021/08/31 02:42:21;;;;;;;6.93;4.50;;;;;;;23.89;46.36;99738.13;2084589;28;20125;-46
2021/08/31 02:43:21;;;;;;;5.50;4.67;;;;;;;23.91;46.32;99743.41;2084512;28;20718;-45
2021/08/31 02:44:22;;;;;;;5.30;4.13;;;;;;;23.90;46.41;99745.31;2083812;28;20386;-46
2021/08/31 02:45:22;;;;;;;5.20;4.43;;;;;;;23.89;46.41;99743.63;2085388;28;20471;-46
2021/08/31 02:46:22;;;;;;;5.37;4.47;;;;;;;23.88;46.42;99739.16;2084614;28;20450;-45
2021/08/31 02:47:23;;;;;;;6.50;4.87;;;;;;;23.89;46.37;99737.28;2083780;28;20682;-46
2021/08/31 02:48:23;;;;;;;6.90;4.70;;;;;;;23.89;46.39;99742.78;2086060;28;20046;-45
2021/08/31 02:49:24;;;;;;;4.97;4.20;;;;;;;23.88;46.38;99741.91;2081592;28;20078;-45
2021/08/31 02:50:25;;;;;;;6.00;4.83;;;;;;;23.89;46.36;99742.78;2079844;28;20035;-45
2021/08/31 02:51:25;;;;;;;6.85;4.80;;;;;;;23.88;46.38;99744.66;2086279;28;20024;-46
2021/08/31 02:52:26;;;;;;;5.83;4.57;;;;;;;23.88;46.38;99739.16;2083430;28;20109;-45
2021/08/31 02:53:26;;;;;;;6.77;4.57;;;;;;;23.87;46.40;99745.72;2084613;28;20902;-48
2021/08/31 02:54:27;;;;;;;6.00;4.70;;;;;;;23.87;46.37;99742.13;2084207;28;20036;-46
2021/08/31 02:55:27;;;;;;;5.60;4.43;;;;;;;23.87;46.37;99748.47;2083844;28;20056;-46
2021/08/31 02:56:28;;;;;;;4.80;4.13;;;;;;;23.88;46.48;99752.91;2086043;28;20580;-48
2021/08/31 02:57:28;;;;;;;5.17;3.83;;;;;;;23.87;46.43;99756.72;2084178;28;20282;-45
2021/08/31 02:58:28;;;;;;;5.17;4.40;;;;;;;23.86;46.39;99755.03;2085201;28;20028;-48
2021/08/31 02:59:30;;;;;;;5.70;4.23;;;;;;;23.86;46.48;99757.78;2085601;28;20398;-45
2021/08/31 03:00:31;;;;;;;5.85;5.00;;;;;;;23.86;46.48;99755.03;2082569;28;20032;-46
2021/08/31 03:01:38;;;;;;;7.60;4.88;;;;;;;23.87;46.54;99756.72;2078001;28;20413;-47
2021/08/31 03:02:39;;;;;;;5.93;4.45;;;;;;;23.85;46.40;99753.31;2081040;28;20238;-45
2021/08/31 03:03:39;;;;;;;4.77;3.73;;;;;;;23.86;46.39;99754.16;2085075;28;20126;-45
2021/08/31 03:04:42;;;;;;;5.00;4.07;;;;;;;23.86;46.44;99757.78;2082501;28;20112;-45
2021/08/31 03:05:42;;;;;;;6.97;4.85;;;;;;;23.86;46.43;99760.53;2083707;28;20400;-45
2021/08/31 03:06:43;;;;;;;6.30;4.27;;;;;;;23.86;46.33;99759.66;2083773;28;20039;-46
2021/08/31 03:07:43;;;;;;;5.60;4.07;;;;;;;23.86;46.47;99755.03;2085221;28;20146;-46
2021/08/31 03:08:44;;;;;;;5.33;4.17;;;;;;;23.85;46.63;99747.78;2081074;28;20427;-45
2021/08/31 03:09:44;;;;;;;4.93;4.17;;;;;;;23.86;46.40;99754.16;2085744;28;20590;-45
2021/08/31 03:10:45;;;;;;;4.80;4.00;;;;;;;23.85;46.47;99753.31;2081272;28;20028;-46
2021/08/31 03:11:46;;;;;;;5.10;3.37;;;;;;;23.86;46.48;99759.66;2085006;28;20393;-46
2021/08/31 03:12:46;;;;;;;6.00;4.40;;;;;;;23.84;46.46;99759.84;2084647;28;20120;-46
2021/08/31 03:13:48;;;;;;;5.83;4.00;;;;;;;23.85;46.59;99755.19;2086262;28;20028;-46
2021/08/31 03:14:48;;;;;;;6.00;3.95;;;;;;;23.84;46.55;99754.34;2083250;28;20044;-46
2021/08/31 03:15:49;;;;;;;4.63;3.53;;;;;;;23.84;46.60;99754.34;2082275;28;20058;-46
2021/08/31 03:16:50;;;;;;;4.60;4.07;;;;;;;23.84;46.54;99756.25;2083148;28;20040;-46
2021/08/31 03:17:52;;;;;;;6.60;4.57;;;;;;;23.84;46.44;99759.84;2083057;28;20418;-45
2021/08/31 03:18:53;;;;;;;5.72;4.10;;;;;;;23.85;46.48;99755.19;2079044;28;20044;-45
2021/08/31 03:19:53;;;;;;;5.57;4.37;;;;;;;23.84;46.52;99756.25;2082463;28;20536;-46
2021/08/31 03:20:54;;;;;;;4.40;3.73;;;;;;;23.83;46.63;99752.63;2086273;28;20031;-45
2021/08/31 03:21:56;;;;;;;5.37;4.20;;;;;;;23.83;46.57;99760.88;2082882;28;20165;-46
2021/08/31 03:22:57;;;;;;;5.38;4.43;;;;;;;23.83;46.67;99760.88;2086098;28;20124;-46
2021/08/31 03:23:57;;;;;;;5.60;4.23;;;;;;;23.83;46.62;99760.03;2082603;28;20043;-45
2021/08/31 03:24:58;;;;;;;4.93;3.87;;;;;;;23.83;46.48;99763.63;2083177;28;20626;-46
2021/08/31 03:25:58;;;;;;;5.70;4.23;;;;;;;23.83;46.55;99760.88;2085453;28;20024;-46
2021/08/31 03:26:59;;;;;;;5.63;4.23;;;;;;;23.83;46.53;99758.13;2083001;28;20029;-46
2021/08/31 03:27:59;;;;;;;4.87;3.73;;;;;;;23.83;46.57;99763.63;2084759;28;20394;-46
2021/08/31 03:28:59;;;;;;;4.83;3.50;;;;;;;23.82;46.63;99761.94;2083469;28;20056;-46
2021/08/31 03:30:00;;;;;;;4.57;3.67;;;;;;;23.82;46.69;99759.19;2073130;28;20025;-45
2021/08/31 03:31:01;;;;;;;5.40;4.13;;;;;;;23.83;46.68;99760.88;2075521;28;20033;-45
2021/08/31 03:32:01;;;;;;;5.03;4.17;;;;;;;23.83;46.60;99771.91;2081529;28;20071;-45
2021/08/31 03:33:02;;;;;;;5.30;4.63;;;;;;;23.82;46.49;99761.09;2083846;28;20359;-46
2021/08/31 03:34:03;;;;;;;5.93;3.97;;;;;;;23.83;46.65;99768.28;2084141;28;20551;-45
2021/08/31 03:35:04;;;;;;;5.35;4.07;;;;;;;23.82;46.61;99764.69;2084683;28;20259;-45
2021/08/31 03:36:07;;;;;;;5.43;4.30;;;;;;;23.82;46.65;99766.59;2083184;28;20108;-45
2021/08/31 03:37:08;;;;;;;5.68;4.03;;;;;;;23.82;46.54;99764.69;2084988;28;20391;-45
2021/08/31 03:38:08;;;;;;;6.33;4.20;;;;;;;23.82;46.71;99764.69;2068691;28;21073;-46
2021/08/31 03:39:08;;;;;;;4.60;3.90;;;;;;;23.82;46.54;99764.69;2079045;28;20103;-46
2021/08/31 03:40:10;;;;;;;4.37;3.83;;;;;;;23.83;46.55;99766.38;2086886;28;20793;-45
2021/08/31 03:41:10;;;;;;;4.65;3.42;;;;;;;23.83;46.48;99766.38;2084744;28;20154;-45
2021/08/31 03:42:11;;;;;;;5.13;4.43;;;;;;;23.83;46.60;99766.38;2084858;28;20020;-46
2021/08/31 03:43:11;;;;;;;4.97;3.70;;;;;;;23.82;46.42;99770.19;2085194;28;20016;-46
2021/08/31 03:44:12;;;;;;;8.40;4.67;;;;;;;23.82;46.54;99767.44;2082223;28;20025;-46
2021/08/31 03:45:13;;;;;;;5.30;4.17;;;;;;;23.82;46.38;99769.34;2085335;28;20029;-46
2021/08/31 03:46:13;;;;;;;4.38;3.85;;;;;;;23.81;46.51;99773.13;2081747;28;20047;-46
2021/08/31 03:47:14;;;;;;;5.37;4.00;;;;;;;23.82;46.50;99763.84;2077945;28;20115;-46
2021/08/31 03:48:14;;;;;;;4.57;3.80;;;;;;;23.81;46.53;99768.47;2085959;28;20028;-45
2021/08/31 03:49:15;;;;;;;4.77;4.00;;;;;;;23.80;46.50;99766.78;2082090;28;20032;-46
2021/08/31 03:50:15;;;;;;;5.33;3.97;;;;;;;23.81;46.54;99767.63;2081604;28;20028;-46
2021/08/31 03:51:16;;;;;;;5.73;3.53;;;;;;;23.81;46.47;99765.72;2083277;28;20028;-46
2021/08/31 03:52:16;;;;;;;5.97;4.00;;;;;;;23.81;46.43;99773.13;2084002;28;20023;-46
2021/08/31 03:53:17;;;;;;;4.63;3.63;;;;;;;23.81;46.46;99768.47;2086186;28;20047;-46
2021/08/31 03:54:18;;;;;;;7.00;4.40;;;;;;;23.82;46.33;99766.59;2082792;28;20120;-47
2021/08/31 03:55:18;;;;;;;3.97;3.30;;;;;;;23.81;46.50;99771.22;2085052;28;20089;-45
2021/08/31 03:56:19;;;;;;;4.53;3.27;;;;;;;23.81;46.44;99773.97;2084783;28;20060;-47
2021/08/31 03:57:20;;;;;;;5.38;3.78;;;;;;;23.81;46.35;99776.72;2086115;28;20442;-45
2021/08/31 03:58:21;;;;;;;5.13;3.50;;;;;;;23.81;46.42;99773.13;2084876;28;20123;-48
2021/08/31 03:59:21;;;;;;;4.80;3.77;;;;;;;23.81;46.48;99781.38;2082120;28;20024;-46
2021/08/31 04:00:22;;;;;;;5.27;4.50;;;;;;;23.80;46.44;99776.94;2083869;28;20024;-46
2021/08/31 04:01:22;;;;;;;4.57;3.73;;;;;;;23.81;46.48;99779.47;2084636;28;20425;-46
2021/08/31 04:02:23;;;;;;;4.50;3.20;;;;;;;23.80;46.40;99783.28;2083520;28;20036;-46
2021/08/31 04:03:23;;;;;;;5.33;3.73;;;;;;;23.80;46.44;99779.69;2084543;28;20403;-45
2021/08/31 04:04:24;;;;;;;4.37;3.30;;;;;;;23.80;46.55;99779.69;2083474;28;20129;-46
2021/08/31 04:05:25;;;;;;;5.00;3.80;;;;;;;23.80;46.46;99783.28;2081901;28;20525;-46
2021/08/31 04:06:25;;;;;;;4.50;3.40;;;;;;;23.79;46.50;99776.09;2083683;28;20212;-46
2021/08/31 04:07:25;;;;;;;4.10;3.20;;;;;;;23.79;46.52;99777.97;2080606;28;20032;-46
2021/08/31 04:08:26;;;;;;;4.43;3.43;;;;;;;23.78;46.33;99779.88;2082146;28;20482;-46
2021/08/31 04:09:26;;;;;;;3.37;3.07;;;;;;;23.78;46.46;99785.38;2081799;28;20047;-46
2021/08/31 04:10:27;;;;;;;4.37;3.40;;;;;;;23.78;46.42;99790.03;2082096;28;20024;-46
2021/08/31 04:11:27;;;;;;;5.83;4.00;;;;;;;23.78;46.64;99784.53;2084265;28;20035;-46
2021/08/31 04:12:28;;;;;;;5.30;3.90;;;;;;;23.78;46.45;99790.88;2083558;28;20029;-47
2021/08/31 04:13:29;;;;;;;4.40;3.60;;;;;;;23.78;46.37;99779.88;2083996;28;20115;-47
2021/08/31 04:14:30;;;;;;;4.47;3.40;;;;;;;23.77;46.53;99783.69;2085990;28;20029;-45
2021/08/31 04:15:30;;;;;;;5.90;3.93;;;;;;;23.77;46.36;99783.69;2085359;28;20068;-46
2021/08/31 04:16:31;;;;;;;3.93;3.43;;;;;;;23.78;46.52;99790.88;2080620;28;20434;-46
2021/08/31 04:17:32;;;;;;;3.37;3.00;;;;;;;23.78;46.37;99790.03;2083959;28;20079;-45
2021/08/31 04:18:32;;;;;;;6.37;3.70;;;;;;;23.78;46.50;99792.78;2085232;28;20024;-45
2021/08/31 04:19:33;;;;;;;4.47;3.53;;;;;;;23.76;46.39;99787.44;2075341;28;20115;-45
2021/08/31 04:20:33;;;;;;;4.00;3.30;;;;;;;23.77;46.60;99800.19;2082016;28;20039;-45
2021/08/31 04:21:34;;;;;;;5.70;3.53;;;;;;;23.76;46.43;99792.94;2083589;28;20056;-45
2021/08/31 04:22:35;;;;;;;3.90;3.30;;;;;;;23.76;46.54;99784.69;2084887;28;20032;-46
2021/08/31 04:23:35;;;;;;;5.83;3.73;;;;;;;23.76;46.46;99781.94;2082856;28;20024;-45
2021/08/31 04:24:36;;;;;;;4.13;3.50;;;;;;;23.76;46.37;99787.44;2078587;28;20352;-46
2021/08/31 04:25:37;;;;;;;3.67;2.90;;;;;;;23.76;46.32;99787.44;2081287;28;20024;-47
2021/08/31 04:26:37;;;;;;;3.90;3.23;;;;;;;23.77;46.42;99789.19;2082368;28;20316;-45
2021/08/31 04:27:37;;;;;;;4.83;3.40;;;;;;;23.76;46.37;99795.72;2086650;28;20467;-45
2021/08/31 04:28:38;;;;;;;4.17;3.57;;;;;;;23.75;46.44;99791.25;2081655;28;20058;-46
2021/08/31 04:29:38;;;;;;;4.03;3.47;;;;;;;23.75;46.32;99791.25;2084501;28;20447;-45
2021/08/31 04:30:39;;;;;;;6.17;3.20;;;;;;;23.74;46.33;99784.91;2081800;28;20332;-46
2021/08/31 04:31:40;;;;;;;3.97;2.90;;;;;;;23.74;46.18;99790.41;2083374;28;20389;-48
2021/08/31 04:32:40;;;;;;;6.93;4.07;;;;;;;23.75;46.37;99785.75;2083642;28;20130;-46
2021/08/31 04:33:41;;;;;;;4.17;3.13;;;;;;;23.75;46.37;99794.84;2082670;28;20028;-45
2021/08/31 04:34:41;;;;;;;4.50;3.20;;;;;;;23.75;46.17;99792.09;2083163;28;20024;-46
2021/08/31 04:35:42;;;;;;;3.73;3.10;;;;;;;23.75;46.18;99799.50;2085000;28;20089;-45
2021/08/31 04:36:43;;;;;;;4.43;3.37;;;;;;;23.75;46.36;99794.00;2082958;28;20029;-46
2021/08/31 04:37:44;;;;;;;4.45;3.35;;;;;;;23.75;46.29;99797.59;2085351;28;20416;-47
2021/08/31 04:38:44;;;;;;;3.83;3.03;;;;;;;23.75;46.29;99794.00;2082820;28;20035;-47
2021/08/31 04:39:45;;;;;;;4.37;3.30;;;;;;;23.75;46.30;99799.50;2082425;28;20807;-45
2021/08/31 04:40:46;;;;;;;4.40;3.47;;;;;;;23.74;46.30;99795.91;2082203;28;20304;-45
2021/08/31 04:41:47;;;;;;;6.03;2.78;;;;;;;23.74;46.29;99797.81;2074146;28;20044;-45
2021/08/31 04:42:48;;;;;;;3.85;2.80;;;;;;;23.73;46.40;99798.84;2079541;28;20446;-45
2021/08/31 04:43:48;;;;;;;5.27;3.20;;;;;;;23.75;46.33;99807.78;2080497;28;20506;-45
2021/08/31 04:44:49;;;;;;;4.60;3.07;;;;;;;23.73;46.39;99799.69;2083065;28;20724;-45
2021/08/31 04:45:49;;;;;;;4.53;3.17;;;;;;;23.74;46.34;99806.06;2084388;28;20036;-45
2021/08/31 04:46:50;;;;;;;4.27;3.53;;;;;;;23.73;46.28;99805.19;2084470;28;20027;-46